createdAt,value
2022-10-19T00:01:21.778Z,100.00
2022-10-19T00:06:45.336Z,100.00
2022-10-19T00:12:07.174Z,100.00
2022-10-19T00:17:29.086Z,100.00
2022-10-19T00:22:51.113Z,100.00
2022-10-19T00:28:12.967Z,100.00
2022-10-19T00:33:35.109Z,100.00
2022-10-19T00:38:57.984Z,100.00
2022-10-19T00:44:19.749Z,100.00
2022-10-19T00:49:45.398Z,100.00
2022-10-19T00:55:08.603Z,100.00
2022-10-19T01:00:31.332Z,100.00
2022-10-19T01:05:53.326Z,100.00
2022-10-19T01:16:44.414Z,100.00
2022-10-19T01:22:41.255Z,100.00
2022-10-19T01:28:23.797Z,100.00
2022-10-19T01:33:55.114Z,100.00
2022-10-19T01:39:42.649Z,100.00
2022-10-19T01:45:21.747Z,100.00
2022-10-19T01:50:50.451Z,100.00
2022-10-19T01:56:14.422Z,100.00
2022-10-19T02:01:39.940Z,100.00
2022-10-19T02:07:02.908Z,100.00
2022-10-19T02:12:26.304Z,100.00
2022-10-19T02:17:51.746Z,100.00
2022-10-19T02:23:17.408Z,100.00
2022-10-19T02:28:39.483Z,100.00
2022-10-19T02:34:01.754Z,100.00
2022-10-19T02:39:24.412Z,100.00
2022-10-19T02:44:53.152Z,100.00
2022-10-19T02:50:15.455Z,100.00
2022-10-19T02:55:37.603Z,100.00
2022-10-19T03:00:59.511Z,100.00
2022-10-19T03:06:21.330Z,100.00
2022-10-19T03:11:43.173Z,100.00
2022-10-19T03:17:05.430Z,100.00
2022-10-19T03:22:27.277Z,100.00
2022-10-19T03:27:49.080Z,100.00
2022-10-19T03:33:10.902Z,100.00
2022-10-19T03:38:32.710Z,100.00
2022-10-19T03:43:55.246Z,100.00
2022-10-19T03:49:17.220Z,100.00
2022-10-19T03:54:39.100Z,100.00
2022-10-19T04:00:00.994Z,100.00
2022-10-19T04:05:22.912Z,100.00
2022-10-19T04:10:45.112Z,100.00
2022-10-19T04:16:07.937Z,100.00
2022-10-19T04:21:35.069Z,100.00
2022-10-19T04:26:57.135Z,100.00
2022-10-19T04:32:19.013Z,100.00
2022-10-19T04:37:40.885Z,100.00
2022-10-19T04:43:03.417Z,100.00
2022-10-19T04:48:25.251Z,100.00
2022-10-19T04:53:47.759Z,100.00
2022-10-19T04:59:10.453Z,100.00
2022-10-19T05:04:32.476Z,100.00
2022-10-19T05:09:54.267Z,100.00
2022-10-19T05:15:16.119Z,100.00
2022-10-19T05:20:37.938Z,100.00
2022-10-19T05:26:14.146Z,100.00
2022-10-19T05:31:35.984Z,100.00
2022-10-19T05:36:57.823Z,100.00
2022-10-19T05:42:19.670Z,100.00
2022-10-19T05:47:41.493Z,100.00
2022-10-19T05:53:03.783Z,100.00
2022-10-19T05:58:25.685Z,100.00
2022-10-19T06:03:51.743Z,100.00
2022-10-19T06:09:13.637Z,84.80
2022-10-19T06:14:35.520Z,84.29
2022-10-19T06:19:57.363Z,91.08
2022-10-19T06:25:20.375Z,83.60
2022-10-19T06:30:42.705Z,81.98
2022-10-19T06:36:19.498Z,82.41
2022-10-19T06:41:41.742Z,89.18
2022-10-19T06:47:03.588Z,89.51
2022-10-19T06:52:25.465Z,91.58
2022-10-19T06:57:47.319Z,92.43
2022-10-19T07:03:09.133Z,93.50
2022-10-19T07:08:32.725Z,93.97
2022-10-19T07:13:54.573Z,94.32
2022-10-19T07:19:16.872Z,95.78
2022-10-19T07:24:38.705Z,93.75
2022-10-19T07:30:00.532Z,89.91
2022-10-19T07:35:22.363Z,88.61
2022-10-19T07:40:47.230Z,90.59
2022-10-19T07:46:16.441Z,90.09
2022-10-19T07:51:39.256Z,91.67
2022-10-19T07:57:01.079Z,92.17
2022-10-19T08:02:25.016Z,88.84
2022-10-19T08:07:52.765Z,90.12
2022-10-19T08:13:14.586Z,89.97
2022-10-19T08:18:36.439Z,87.93
2022-10-19T08:23:58.909Z,87.41
2022-10-19T08:29:21.041Z,89.33
2022-10-19T08:34:42.871Z,92.25
2022-10-19T08:40:05.474Z,93.21
2022-10-19T08:45:37.602Z,92.71
2022-10-19T08:51:00.972Z,94.50
2022-10-19T08:56:50.467Z,94.20
2022-10-19T09:02:30.318Z,93.47
2022-10-19T09:07:54.038Z,95.05
2022-10-19T09:13:15.810Z,96.51
2022-10-19T09:18:37.704Z,97.11
2022-10-19T09:24:12.060Z,95.62
2022-10-19T09:29:47.756Z,92.43
2022-10-19T09:35:26.374Z,93.39
2022-10-19T09:40:48.256Z,92.15
2022-10-19T09:46:20.263Z,90.71
2022-10-19T09:51:52.209Z,89.06
2022-10-19T09:57:24.700Z,89.07
2022-10-19T10:02:54.236Z,89.06
2022-10-19T10:08:20.751Z,90.72
2022-10-19T10:13:48.269Z,91.95
2022-10-19T10:19:14.649Z,91.40
2022-10-19T10:24:36.492Z,89.86
2022-10-19T10:29:58.793Z,88.83
2022-10-19T10:35:29.661Z,87.53
2022-10-19T10:40:54.412Z,86.30
2022-10-19T10:46:22.802Z,83.75
2022-10-19T10:51:52.993Z,81.06
2022-10-19T10:57:16.007Z,81.67
2022-10-19T11:03:00.231Z,79.25
2022-10-19T11:08:31.941Z,78.66
2022-10-19T11:14:10.845Z,76.69
2022-10-19T11:19:32.622Z,78.20
2022-10-19T11:25:28.872Z,76.72
2022-10-19T11:31:05.948Z,77.35
2022-10-19T11:36:35.314Z,77.71
2022-10-19T11:42:28.956Z,76.58
2022-10-19T11:48:26.186Z,75.84
2022-10-19T11:54:38.873Z,74.44
2022-10-19T12:00:15.181Z,73.37
2022-10-19T12:05:52.734Z,70.28
2022-10-19T12:11:26.813Z,68.76
2022-10-19T12:16:57.075Z,67.81
2022-10-19T12:22:27.702Z,67.35
2022-10-19T12:27:50.160Z,68.21
2022-10-19T12:33:26.945Z,69.20
2022-10-19T12:39:10.313Z,68.30
2022-10-19T12:44:43.925Z,67.68
2022-10-19T12:50:07.035Z,66.34
2022-10-19T12:55:30.983Z,64.31
2022-10-19T13:01:07.408Z,61.02
2022-10-19T13:06:35.893Z,60.11
2022-10-19T13:12:22.404Z,55.36
2022-10-19T13:17:45.516Z,57.97
2022-10-19T13:23:07.331Z,57.32
2022-10-19T13:28:29.332Z,62.29
2022-10-19T13:33:52.053Z,67.40
2022-10-19T13:39:15.169Z,67.89
2022-10-19T13:44:37.062Z,69.68
2022-10-19T13:50:04.469Z,71.49
2022-10-19T13:56:05.405Z,71.67
2022-10-19T14:01:56.287Z,70.95
2022-10-19T14:07:39.775Z,70.17
2022-10-19T14:13:05.116Z,71.87
2022-10-19T14:18:30.986Z,73.34
2022-10-19T14:23:52.929Z,73.97
2022-10-19T14:29:14.926Z,74.58
2022-10-19T14:34:42.265Z,74.21
2022-10-19T14:40:26.434Z,73.36
2022-10-19T14:46:08.132Z,72.58
2022-10-19T14:51:49.741Z,72.64
2022-10-19T14:57:11.500Z,73.72
2022-10-19T15:02:38.786Z,73.52
2022-10-19T15:08:10.241Z,74.51
2022-10-19T15:13:35.818Z,74.39
2022-10-19T15:19:03.729Z,73.71
2022-10-19T15:24:28.088Z,74.07
2022-10-19T15:30:01.586Z,73.91
2022-10-19T15:35:31.433Z,73.28
2022-10-19T15:40:59.219Z,73.36
2022-10-19T15:46:24.358Z,73.40
2022-10-19T15:51:48.226Z,73.42
2022-10-19T15:57:39.055Z,72.22
2022-10-19T16:03:01.334Z,72.83
2022-10-19T16:08:23.151Z,73.29
2022-10-19T16:13:45.817Z,73.31
2022-10-19T16:19:09.269Z,73.98
2022-10-19T16:24:31.247Z,73.48
2022-10-19T16:29:53.077Z,74.18
2022-10-19T16:35:15.176Z,74.23
2022-10-19T16:40:37.104Z,74.75
2022-10-19T16:45:58.980Z,74.51
2022-10-19T16:51:26.679Z,75.30
2022-10-19T16:56:48.927Z,75.80
2022-10-19T17:02:11.618Z,76.40
2022-10-19T17:07:33.641Z,76.69
2022-10-19T17:12:55.556Z,77.71
2022-10-19T17:23:40.913Z,79.02
2022-10-19T17:29:03.717Z,79.26
2022-10-19T17:34:26.398Z,79.59
2022-10-19T17:39:50.853Z,80.65
2022-10-19T17:45:12.692Z,81.06
2022-10-19T17:50:34.522Z,81.36
2022-10-19T17:55:59.934Z,81.83
2022-10-19T18:01:23.293Z,82.26
2022-10-19T18:06:45.110Z,82.74
2022-10-19T18:12:07.552Z,83.30
2022-10-19T18:17:29.597Z,83.72
2022-10-19T18:22:51.424Z,84.52
2022-10-19T18:28:13.402Z,85.06
2022-10-19T18:33:36.046Z,84.78
2022-10-19T18:39:00.231Z,85.44
2022-10-19T18:44:26.290Z,85.65
2022-10-19T18:49:49.230Z,86.19
2022-10-19T18:55:11.124Z,86.51
2022-10-19T19:00:33.003Z,87.14
2022-10-19T19:05:54.830Z,87.50
2022-10-19T19:11:22.420Z,87.58
2022-10-19T19:16:45.668Z,88.20
2022-10-19T19:22:08.801Z,88.86
2022-10-19T19:27:32.061Z,88.97
2022-10-19T19:32:54.084Z,89.45
2022-10-19T19:38:16.261Z,89.75
2022-10-19T19:43:39.254Z,89.62
2022-10-19T19:49:04.264Z,89.88
2022-10-19T19:54:26.062Z,90.01
2022-10-19T19:59:48.197Z,91.15
2022-10-19T20:05:10.129Z,91.15
2022-10-19T20:10:32.013Z,90.95
2022-10-19T20:15:53.885Z,91.85
2022-10-19T20:21:17.122Z,91.68
2022-10-19T20:26:39.130Z,92.71
2022-10-19T20:32:00.970Z,93.05
2022-10-19T20:37:22.870Z,93.67
2022-10-19T20:42:45.352Z,94.19
2022-10-19T20:48:07.797Z,94.99
2022-10-19T20:53:29.647Z,95.48
2022-10-19T20:59:05.398Z,95.47
2022-10-19T21:04:27.545Z,97.07
2022-10-19T21:09:49.783Z,96.20
2022-10-19T21:15:11.674Z,97.46
2022-10-19T21:20:33.501Z,97.67
2022-10-19T21:25:55.333Z,99.09
2022-10-19T21:31:18.061Z,100.00
2022-10-19T21:36:39.948Z,99.78
2022-10-19T21:42:01.824Z,100.00
2022-10-19T21:47:23.701Z,100.00
2022-10-19T21:52:45.593Z,100.00
2022-10-19T21:58:07.443Z,100.00
2022-10-19T22:03:29.410Z,100.00
2022-10-19T22:08:51.371Z,100.00
2022-10-19T22:14:14.841Z,100.00
2022-10-19T22:19:36.847Z,100.00
2022-10-19T22:24:58.705Z,100.00
2022-10-19T22:30:20.590Z,100.00
2022-10-19T22:35:42.405Z,100.00
2022-10-19T22:41:42.027Z,100.00
2022-10-19T22:47:03.946Z,100.00
2022-10-19T22:52:25.865Z,100.00
2022-10-19T22:57:48.039Z,100.00
2022-10-19T23:03:10.087Z,100.00
2022-10-19T23:08:32.059Z,100.00
2022-10-19T23:13:54.008Z,100.00
2022-10-19T23:19:15.879Z,100.00
2022-10-19T23:24:37.823Z,100.00
2022-10-19T23:29:59.752Z,100.00
2022-10-19T23:35:21.693Z,100.00
2022-10-19T23:40:44.775Z,100.00
2022-10-19T23:46:06.733Z,100.00
2022-10-19T23:51:28.673Z,100.00
2022-10-19T23:56:50.518Z,100.00
